createdAt,value
2023-01-10T00:03:52.039Z,4.00
2023-01-10T00:08:14.143Z,4.30
2023-01-10T00:12:50.043Z,4.50
2023-01-10T00:17:07.152Z,4.70
2023-01-10T00:21:24.198Z,4.80
2023-01-10T00:25:42.278Z,4.80
2023-01-10T00:30:01.459Z,4.80
2023-01-10T00:34:18.583Z,4.70
2023-01-10T00:38:36.288Z,4.80
2023-01-10T00:43:12.133Z,4.70
2023-01-10T00:47:29.201Z,4.80
2023-01-10T00:51:46.510Z,4.80
2023-01-10T00:56:03.803Z,4.70
2023-01-10T01:00:21.023Z,4.70
2023-01-10T01:04:38.096Z,4.60
2023-01-10T01:08:55.189Z,4.70
2023-01-10T01:13:22.040Z,4.60
2023-01-10T01:17:39.632Z,4.60
2023-01-10T01:21:56.694Z,4.50
2023-01-10T01:26:13.756Z,4.60
2023-01-10T01:30:30.822Z,4.70
2023-01-10T01:34:47.967Z,4.80
2023-01-10T01:39:06.212Z,4.80
2023-01-10T01:43:28.965Z,4.90
2023-01-10T01:48:09.507Z,4.90
2023-01-10T01:52:34.537Z,4.90
2023-01-10T01:56:56.202Z,5.00
2023-01-10T02:01:15.054Z,5.00
2023-01-10T02:05:34.440Z,5.10
2023-01-10T02:10:17.499Z,5.10
2023-01-10T02:14:36.115Z,5.10
2023-01-10T02:18:53.237Z,5.20
2023-01-10T02:23:36.374Z,5.20
2023-01-10T02:28:22.615Z,5.20
2023-01-10T02:33:04.242Z,5.20
2023-01-10T02:37:38.589Z,5.10
2023-01-10T02:42:08.306Z,5.10
2023-01-10T02:46:29.002Z,5.10
2023-01-10T02:50:54.390Z,5.00
2023-01-10T02:55:11.470Z,5.00
2023-01-10T02:59:56.367Z,5.00
2023-01-10T03:04:41.618Z,5.10
2023-01-10T03:09:11.853Z,5.10
2023-01-10T03:13:50.155Z,5.20
2023-01-10T03:18:14.431Z,5.10
2023-01-10T03:22:32.927Z,5.10
2023-01-10T03:27:03.648Z,5.10
2023-01-10T03:31:30.450Z,5.10
2023-01-10T03:36:27.280Z,5.10
2023-01-10T03:40:59.081Z,5.00
2023-01-10T03:45:21.582Z,4.90
2023-01-10T03:49:41.556Z,5.00
2023-01-10T03:54:02.261Z,5.00
2023-01-10T03:58:21.845Z,5.10
2023-01-10T04:02:39.392Z,5.00
2023-01-10T04:06:56.444Z,5.00
2023-01-10T04:11:13.502Z,5.00
2023-01-10T04:15:31.298Z,5.00
2023-01-10T04:19:48.370Z,5.10
2023-01-10T04:24:05.711Z,5.10
2023-01-10T04:28:24.501Z,5.10
2023-01-10T04:32:41.756Z,5.20
2023-01-10T04:36:58.881Z,5.20
2023-01-10T04:41:15.985Z,5.20
2023-01-10T04:45:33.059Z,5.20
2023-01-10T04:49:50.225Z,5.20
2023-01-10T04:54:07.293Z,5.30
2023-01-10T04:58:24.350Z,5.20
2023-01-10T05:02:44.247Z,5.30
2023-01-10T05:07:01.571Z,5.30
2023-01-10T05:11:18.701Z,5.40
2023-01-10T05:15:35.751Z,5.40
2023-01-10T05:19:52.787Z,5.40
2023-01-10T05:24:09.965Z,5.40
2023-01-10T05:28:27.028Z,5.10
2023-01-10T05:32:44.160Z,5.00
2023-01-10T05:37:01.353Z,4.90
2023-01-10T05:41:18.427Z,4.90
2023-01-10T05:45:35.546Z,5.00
2023-01-10T05:49:52.847Z,4.90
2023-01-10T05:54:09.953Z,5.00
2023-01-10T05:58:27.816Z,5.00
2023-01-10T06:02:44.937Z,5.10
2023-01-10T06:07:02.208Z,5.10
2023-01-10T06:11:19.365Z,5.10
2023-01-10T06:15:37.093Z,5.00
2023-01-10T06:19:54.190Z,5.10
2023-01-10T06:24:11.396Z,5.10
2023-01-10T06:28:28.455Z,5.10
2023-01-10T06:32:45.552Z,5.10
2023-01-10T06:37:02.662Z,5.10
2023-01-10T06:41:19.736Z,5.10
2023-01-10T06:45:36.880Z,5.20
2023-01-10T06:49:54.017Z,5.20
2023-01-10T06:54:11.490Z,5.20
2023-01-10T06:58:29.477Z,5.20
2023-01-10T07:02:46.549Z,5.20
2023-01-10T07:07:03.660Z,5.20
2023-01-10T07:11:20.727Z,5.20
2023-01-10T07:15:37.834Z,5.30
2023-01-10T07:19:54.872Z,5.30
2023-01-10T07:24:11.935Z,5.30
2023-01-10T07:28:29.207Z,5.30
2023-01-10T07:32:46.357Z,5.20
2023-01-10T07:37:03.561Z,5.20
2023-01-10T07:41:20.636Z,5.20
2023-01-10T07:45:37.755Z,5.20
2023-01-10T07:49:55.239Z,5.20
2023-01-10T07:54:14.698Z,5.20
2023-01-10T07:58:33.229Z,5.20
2023-01-10T08:02:54.859Z,5.30
2023-01-10T08:07:12.039Z,5.20
2023-01-10T08:11:29.280Z,5.30
2023-01-10T08:15:47.334Z,5.30
2023-01-10T08:20:04.956Z,5.30
2023-01-10T08:24:22.031Z,5.30
2023-01-10T08:28:39.146Z,5.40
2023-01-10T08:32:56.349Z,5.40
2023-01-10T08:37:14.010Z,5.40
2023-01-10T08:41:31.362Z,5.50
2023-01-10T08:45:49.719Z,5.50
2023-01-10T08:50:08.135Z,5.60
2023-01-10T08:54:25.287Z,5.70
2023-01-10T08:58:42.375Z,5.60
2023-01-10T09:02:59.516Z,5.70
2023-01-10T09:07:16.655Z,5.90
2023-01-10T09:11:33.854Z,5.90
2023-01-10T09:15:52.385Z,5.90
2023-01-10T09:20:10.170Z,5.80
2023-01-10T09:24:27.160Z,5.90
2023-01-10T09:28:44.239Z,5.90
2023-01-10T09:33:01.970Z,5.90
2023-01-10T09:37:19.056Z,5.80
2023-01-10T09:41:59.035Z,5.80
2023-01-10T09:46:22.729Z,5.80
2023-01-10T09:51:23.778Z,5.90
2023-01-10T09:55:42.111Z,5.90
2023-01-10T10:00:01.608Z,6.10
2023-01-10T10:04:46.847Z,6.00
2023-01-10T10:09:05.056Z,6.10
2023-01-10T10:13:46.536Z,6.20
2023-01-10T10:18:25.848Z,6.20
2023-01-10T10:22:56.931Z,6.20
2023-01-10T10:27:23.654Z,6.20
2023-01-10T10:32:18.120Z,6.20
2023-01-10T10:36:54.755Z,6.10
2023-01-10T10:41:33.304Z,6.20
2023-01-10T10:45:58.846Z,6.20
2023-01-10T10:50:16.078Z,6.30
2023-01-10T10:54:35.638Z,6.30
2023-01-10T10:58:56.371Z,6.40
2023-01-10T11:03:37.483Z,6.50
2023-01-10T11:07:59.248Z,6.70
2023-01-10T11:12:18.446Z,6.70
2023-01-10T11:16:40.984Z,6.80
2023-01-10T11:21:06.105Z,6.80
2023-01-10T11:25:23.403Z,6.90
2023-01-10T11:29:48.071Z,6.90
2023-01-10T11:34:16.812Z,6.90
2023-01-10T11:38:34.814Z,7.20
2023-01-10T11:42:59.179Z,7.30
2023-01-10T11:47:20.745Z,7.40
2023-01-10T11:51:43.765Z,7.30
2023-01-10T11:56:02.171Z,7.10
2023-01-10T12:00:19.610Z,7.00
2023-01-10T12:04:44.550Z,7.20
2023-01-10T12:09:01.655Z,7.20
2023-01-10T12:13:18.722Z,7.00
2023-01-10T12:17:37.088Z,7.00
2023-01-10T12:21:58.786Z,6.90
2023-01-10T12:26:16.464Z,6.90
2023-01-10T12:30:50.080Z,6.90
2023-01-10T12:35:17.208Z,6.90
2023-01-10T12:39:44.949Z,6.90
2023-01-10T12:44:11.259Z,7.00
2023-01-10T12:48:49.065Z,7.00
2023-01-10T12:53:23.563Z,7.00
2023-01-10T12:57:43.017Z,7.10
2023-01-10T13:02:02.360Z,7.20
2023-01-10T13:06:30.098Z,7.20
2023-01-10T13:10:50.896Z,7.10
2023-01-10T13:15:21.525Z,7.10
2023-01-10T13:19:38.692Z,7.10
2023-01-10T13:24:01.820Z,7.10
2023-01-10T13:28:28.468Z,7.20
2023-01-10T13:33:02.680Z,7.20
2023-01-10T13:37:38.200Z,7.20
2023-01-10T13:42:18.129Z,7.10
2023-01-10T13:46:47.484Z,7.00
2023-01-10T13:51:19.648Z,6.90
2023-01-10T13:55:45.917Z,6.90
2023-01-10T14:00:37.947Z,7.00
2023-01-10T14:05:00.857Z,6.80
2023-01-10T14:09:21.369Z,6.80
2023-01-10T14:13:46.636Z,6.70
2023-01-10T14:18:07.877Z,6.70
2023-01-10T14:22:32.982Z,6.80
2023-01-10T14:26:56.476Z,6.80
2023-01-10T14:31:24.764Z,6.70
2023-01-10T14:35:53.960Z,6.60
2023-01-10T14:40:28.531Z,6.60
2023-01-10T14:45:03.629Z,6.50
2023-01-10T14:49:31.904Z,6.60
2023-01-10T14:54:05.721Z,6.50
2023-01-10T14:58:24.682Z,6.50
2023-01-10T15:02:48.861Z,6.40
2023-01-10T15:07:16.974Z,6.40
2023-01-10T15:11:34.384Z,6.30
2023-01-10T15:15:52.315Z,6.20
2023-01-10T15:20:17.833Z,6.20
2023-01-10T15:24:37.142Z,6.10
2023-01-10T15:29:22.343Z,6.10
2023-01-10T15:33:45.100Z,6.10
2023-01-10T15:38:14.170Z,6.00
2023-01-10T15:42:31.685Z,5.90
2023-01-10T15:46:59.291Z,5.90
2023-01-10T15:51:33.857Z,5.90
2023-01-10T15:55:55.999Z,5.80
2023-01-10T16:00:18.295Z,5.80
2023-01-10T16:04:36.666Z,5.80
2023-01-10T16:08:58.266Z,5.80
2023-01-10T16:13:32.204Z,5.60
2023-01-10T16:17:51.669Z,5.40
2023-01-10T16:22:17.419Z,5.20
2023-01-10T16:26:36.380Z,5.10
2023-01-10T16:30:55.509Z,5.00
2023-01-10T16:35:12.969Z,4.90
2023-01-10T16:39:30.313Z,4.80
2023-01-10T16:43:52.694Z,4.60
2023-01-10T16:48:12.067Z,4.60
2023-01-10T16:52:31.104Z,4.40
2023-01-10T16:56:50.404Z,4.30
2023-01-10T17:01:20.077Z,4.20
2023-01-10T17:05:43.045Z,4.30
2023-01-10T17:10:02.280Z,4.40
2023-01-10T17:14:21.306Z,4.50
2023-01-10T17:18:40.807Z,4.70
2023-01-10T17:22:58.157Z,4.70
2023-01-10T17:27:15.268Z,4.80
2023-01-10T17:31:32.325Z,4.80
2023-01-10T17:35:52.809Z,4.80
2023-01-10T17:40:10.574Z,4.80
2023-01-10T17:44:27.882Z,4.70
2023-01-10T17:48:45.312Z,4.60
2023-01-10T17:53:02.541Z,4.40
2023-01-10T17:57:19.627Z,4.30
2023-01-10T18:01:36.776Z,4.10
2023-01-10T18:05:56.037Z,4.10
2023-01-10T18:10:13.132Z,4.00
2023-01-10T18:14:36.309Z,3.90
2023-01-10T18:18:53.364Z,3.80
2023-01-10T18:23:23.469Z,3.70
2023-01-10T18:27:43.288Z,3.70
2023-01-10T18:32:00.794Z,3.60
2023-01-10T18:36:22.466Z,3.50
2023-01-10T18:40:41.275Z,3.50
2023-01-10T18:44:58.440Z,3.60
2023-01-10T18:49:17.304Z,3.60
2023-01-10T18:53:34.472Z,3.70
2023-01-10T18:57:51.568Z,3.60
2023-01-10T19:02:14.694Z,3.70
2023-01-10T19:06:31.868Z,3.60
2023-01-10T19:11:13.525Z,3.60
2023-01-10T19:15:26.046Z,3.60
2023-01-10T19:19:43.118Z,3.60
2023-01-10T19:24:02.284Z,3.60
2023-01-10T19:28:19.414Z,3.60
2023-01-10T19:32:38.267Z,3.50
2023-01-10T19:36:55.379Z,3.40
2023-01-10T19:41:14.300Z,3.50
2023-01-10T19:45:31.757Z,3.60
2023-01-10T19:49:48.807Z,3.50
2023-01-10T19:54:08.111Z,3.50
2023-01-10T19:58:25.218Z,3.50
2023-01-10T20:02:42.326Z,3.50
2023-01-10T20:06:59.429Z,3.70
2023-01-10T20:11:17.906Z,3.70
2023-01-10T20:15:34.973Z,3.80
2023-01-10T20:19:52.129Z,3.70
2023-01-10T20:24:14.679Z,3.80
2023-01-10T20:28:32.507Z,3.80
2023-01-10T20:32:49.722Z,3.80
2023-01-10T20:37:07.482Z,3.80
2023-01-10T20:41:27.287Z,3.90
2023-01-10T20:45:44.443Z,3.90
2023-01-10T20:50:01.532Z,3.90
2023-01-10T20:54:18.665Z,4.00
2023-01-10T20:58:35.780Z,4.00
2023-01-10T21:02:52.894Z,3.90
2023-01-10T21:07:10.065Z,4.00
2023-01-10T21:11:27.259Z,4.10
2023-01-10T21:15:46.339Z,4.10
2023-01-10T21:20:04.214Z,4.10
2023-01-10T21:24:22.870Z,4.20
2023-01-10T21:28:43.389Z,4.10
2023-01-10T21:33:00.627Z,4.10
2023-01-10T21:37:18.156Z,4.10
2023-01-10T21:42:10.427Z,4.10
2023-01-10T21:46:27.535Z,4.00
2023-01-10T21:50:48.513Z,4.10
2023-01-10T21:55:06.962Z,4.10
2023-01-10T21:59:24.303Z,4.20
2023-01-10T22:03:41.357Z,4.20
2023-01-10T22:07:58.450Z,4.20
2023-01-10T22:12:15.624Z,4.20
2023-01-10T22:16:32.781Z,4.20
2023-01-10T22:20:49.929Z,4.30
2023-01-10T22:25:07.597Z,4.30
2023-01-10T22:29:26.213Z,4.20
2023-01-10T22:33:43.312Z,4.20
2023-01-10T22:38:00.381Z,4.20
2023-01-10T22:42:17.486Z,4.20
2023-01-10T22:46:34.660Z,4.40
2023-01-10T22:50:51.998Z,4.30
2023-01-10T22:55:09.287Z,4.30
2023-01-10T22:59:26.370Z,4.40
2023-01-10T23:03:44.378Z,4.40
2023-01-10T23:08:01.565Z,4.40
2023-01-10T23:12:18.647Z,4.40
2023-01-10T23:16:35.734Z,4.30
2023-01-10T23:20:53.230Z,4.40
2023-01-10T23:25:11.467Z,4.40
2023-01-10T23:29:28.573Z,4.40
2023-01-10T23:33:45.763Z,4.50
2023-01-10T23:38:02.816Z,4.70
2023-01-10T23:42:19.862Z,4.60
2023-01-10T23:46:36.945Z,4.70
2023-01-10T23:50:54.029Z,4.70
2023-01-10T23:55:11.162Z,4.80
2023-01-10T23:59:28.273Z,4.80
